Station Historical Data
Daily Summary for May 28, 2012 Units:  English    Metric   Both
« Previous Day
Next Day »
Daily Weekly Monthly Yearly Custom
  High: Low: Average:
Temperature: 89.7 °F 70.8 °F 79.9 °F
Dew Point: 73.6 °F 64.4 °F 69.2 °F
Humidity: 86% 52% 71%
Wind Speed: 10.0mph 0.0mph 2.6mph
Wind Gust: 13.0mph - -
Wind- - SE
Pressure: 29.97 in 29.82 in -
Precipitation: 0.00 in    
Historical Graphs
 
 
Tabular Data for May 28, 2012
Time Temperature Dew Point Pressure Wind Wind Speed Wind Gust Humidity Rainfall Rate (Hourly) Conditions
00:00 73.3 °F 67.8 °F 29.92 in Calm     83% 0.00 in
00:05 73.4 °F 68.6 °F 29.92 in Calm     85% 0.00 in
00:10 73.3 °F 68.2 °F 29.92 in Calm     84% 0.00 in
00:15 73.3 °F 68.2 °F 29.92 in Calm     84% 0.00 in
00:20 73.4 °F 68.3 °F 29.92 in Calm     84% 0.00 in
00:25 73.3 °F 68.2 °F 29.92 in Calm     84% 0.00 in
00:30 73.3 °F 68.2 °F 29.92 in Calm     84% 0.00 in
00:36 73.3 °F 67.8 °F 29.92 in Calm     83% 0.00 in
00:40 73.3 °F 67.8 °F 29.91 in Calm     83% 0.00 in
00:46 73.1 °F 67.6 °F 29.91 in Calm     83% 0.00 in
00:51 73.2 °F 67.4 °F 29.91 in Calm   1.0 mph 82% 0.00 in
00:56 73.8 °F 67.2 °F 29.91 in NE 1.0 mph 1.0 mph 80% 0.00 in
01:01 74.6 °F 66.9 °F 29.91 in NE 1.0 mph 1.0 mph 77% 0.00 in
01:06 75.1 °F 66.2 °F 29.91 in NE 1.0 mph 2.0 mph 74% 0.00 in
01:11 75.3 °F 66.1 °F 29.91 in Calm   1.0 mph 73% 0.00 in
01:16 75.8 °F 65.3 °F 29.90 in Calm   2.0 mph 70% 0.00 in
01:21 76.3 °F 65.4 °F 29.91 in ENE 1.0 mph 2.0 mph 69% 0.00 in
01:26 76.5 °F 65.2 °F 29.90 in ENE 1.0 mph 1.0 mph 68% 0.00 in
01:31 76.3 °F 65.0 °F 29.90 in Calm   1.0 mph 68% 0.00 in
01:36 75.9 °F 65.0 °F 29.90 in Calm     69% 0.00 in
01:41 75.4 °F 65.3 °F 29.90 in Calm   1.0 mph 71% 0.00 in
01:46 75.3 °F 64.4 °F 29.90 in East 1.0 mph 2.0 mph 69% 0.00 in
01:51 75.8 °F 64.9 °F 29.89 in East 1.0 mph 2.0 mph 69% 0.00 in
01:56 75.8 °F 65.3 °F 29.90 in ESE 2.0 mph 2.0 mph 70% 0.00 in
02:01 75.3 °F 64.8 °F 29.90 in ESE 1.0 mph 3.0 mph 70% 0.00 in
02:06 75.0 °F 65.0 °F 29.90 in East 1.0 mph 2.0 mph 71% 0.00 in
02:11 75.0 °F 65.4 °F 29.90 in Calm   3.0 mph 72% 0.00 in
02:16 74.8 °F 65.6 °F 29.89 in Calm   1.0 mph 73% 0.00 in
02:22 74.6 °F 66.2 °F 29.89 in ESE 1.0 mph 2.0 mph 75% 0.00 in
02:27 74.4 °F 66.7 °F 29.89 in Calm   2.0 mph 77% 0.00 in
02:32 74.2 °F 66.9 °F 29.89 in ESE 1.0 mph 2.0 mph 78% 0.00 in
02:37 73.8 °F 67.2 °F 29.89 in ESE 3.0 mph 3.0 mph 80% 0.00 in
02:42 73.7 °F 67.9 °F 29.89 in ESE 3.0 mph 4.0 mph 82% 0.00 in
02:47 73.8 °F 68.0 °F 29.89 in ESE 3.0 mph 4.0 mph 82% 0.00 in
02:52 73.9 °F 68.4 °F 29.89 in SE 3.0 mph 3.0 mph 83% 0.00 in
02:57 73.8 °F 68.3 °F 29.89 in ESE 2.0 mph 2.0 mph 83% 0.00 in
03:02 73.9 °F 68.4 °F 29.89 in SE 1.0 mph 2.0 mph 83% 0.00 in
03:07 73.9 °F 68.1 °F 29.89 in SE 2.0 mph 3.0 mph 82% 0.00 in
03:12 73.9 °F 68.1 °F 29.89 in SE 2.0 mph 4.0 mph 82% 0.00 in
03:17 73.9 °F 68.1 °F 29.89 in SE 2.0 mph 3.0 mph 82% 0.00 in
03:22 73.7 °F 68.2 °F 29.89 in ESE 3.0 mph 3.0 mph 83% 0.00 in
03:27 73.6 °F 68.1 °F 29.89 in ESE 2.0 mph 4.0 mph 83% 0.00 in
03:32 73.5 °F 68.0 °F 29.89 in ESE 2.0 mph 3.0 mph 83% 0.00 in
03:37 73.3 °F 68.2 °F 29.88 in ESE 3.0 mph 4.0 mph 84% 0.00 in
03:42 73.1 °F 68.0 °F 29.88 in ESE 2.0 mph 3.0 mph 84% 0.00 in
03:47 72.8 °F 68.0 °F 29.88 in ESE 1.0 mph 2.0 mph 85% 0.00 in
03:52 72.8 °F 68.0 °F 29.88 in SE 1.0 mph 2.0 mph 85% 0.00 in
03:57 72.6 °F 67.8 °F 29.88 in ESE 1.0 mph 1.0 mph 85% 0.00 in
04:02 72.5 °F 67.7 °F 29.89 in SE 1.0 mph 2.0 mph 85% 0.00 in
04:07 72.6 °F 67.8 °F 29.89 in SE 1.0 mph 2.0 mph 85% 0.00 in
04:12 72.7 °F 67.9 °F 29.89 in SE 2.0 mph 3.0 mph 85% 0.00 in
04:17 72.7 °F 67.6 °F 29.89 in ESE 4.0 mph 4.0 mph 84% 0.00 in
04:22 72.9 °F 67.4 °F 29.89 in ESE 3.0 mph 4.0 mph 83% 0.00 in
04:27 72.9 °F 67.4 °F 29.89 in SE 3.0 mph 4.0 mph 83% 0.00 in
04:32 72.9 °F 67.4 °F 29.89 in ESE 4.0 mph 4.0 mph 83% 0.00 in
04:37 72.9 °F 67.1 °F 29.89 in ESE 2.0 mph 3.0 mph 82% 0.00 in
04:42 72.8 °F 67.0 °F 29.89 in ESE 2.0 mph 3.0 mph 82% 0.00 in
04:47 72.9 °F 67.1 °F 29.89 in ESE 2.0 mph 4.0 mph 82% 0.00 in
04:52 72.9 °F 66.7 °F 29.89 in SE 3.0 mph 3.0 mph 81% 0.00 in
04:57 72.9 °F 66.7 °F 29.89 in SE 2.0 mph 3.0 mph 81% 0.00 in
05:02 72.9 °F 66.7 °F 29.89 in ESE 4.0 mph 4.0 mph 81% 0.00 in
05:07 72.9 °F 66.7 °F 29.89 in SE 2.0 mph 4.0 mph 81% 0.00 in
05:12 72.7 °F 66.5 °F 29.89 in ESE 2.0 mph 3.0 mph 81% 0.00 in
05:18 72.4 °F 66.6 °F 29.89 in ESE 1.0 mph 3.0 mph 82% 0.00 in
05:23 72.2 °F 66.8 °F 29.89 in ESE 2.0 mph 2.0 mph 83% 0.00 in
05:28 71.9 °F 66.5 °F 29.89 in ESE 1.0 mph 2.0 mph 83% 0.00 in
05:33 71.5 °F 66.4 °F 29.90 in ESE 2.0 mph 2.0 mph 84% 0.00 in
05:38 71.3 °F 66.6 °F 29.90 in ESE 2.0 mph 3.0 mph 85% 0.00 in
05:43 71.2 °F 66.5 °F 29.90 in ESE 2.0 mph 3.0 mph 85% 0.00 in
05:48 71.2 °F 66.5 °F 29.90 in ESE 2.0 mph 2.0 mph 85% 0.00 in
05:53 71.0 °F 66.3 °F 29.90 in ESE 1.0 mph 1.0 mph 85% 0.00 in
05:58 70.8 °F 66.4 °F 29.90 in ESE 2.0 mph 2.0 mph 86% 0.00 in
06:03 70.9 °F 66.5 °F 29.91 in ESE 3.0 mph 3.0 mph 86% 0.00 in
06:08 71.1 °F 66.4 °F 29.91 in ESE 3.0 mph 3.0 mph 85% 0.00 in
06:13 71.2 °F 66.5 °F 29.91 in ESE 2.0 mph 3.0 mph 85% 0.00 in
06:18 71.3 °F 66.2 °F 29.91 in ESE 3.0 mph 3.0 mph 84% 0.00 in
06:23 71.4 °F 66.3 °F 29.91 in ESE 3.0 mph 3.0 mph 84% 0.00 in
06:28 71.4 °F 66.3 °F 29.91 in ESE 4.0 mph 4.0 mph 84% 0.00 in
06:33 71.5 °F 66.1 °F 29.91 in ESE 3.0 mph 4.0 mph 83% 0.00 in
06:38 71.5 °F 66.1 °F 29.91 in SE 2.0 mph 3.0 mph 83% 0.00 in
06:43 71.4 °F 66.0 °F 29.91 in ESE 2.0 mph 3.0 mph 83% 0.00 in
06:48 71.7 °F 65.9 °F 29.92 in ESE 3.0 mph 4.0 mph 82% 0.00 in
06:53 71.8 °F 66.0 °F 29.92 in SE 3.0 mph 4.0 mph 82% 0.00 in
06:58 71.9 °F 66.1 °F 29.92 in SE 2.0 mph 4.0 mph 82% 0.00 in
07:03 71.9 °F 66.1 °F 29.92 in ESE 2.0 mph 3.0 mph 82% 0.00 in
07:08 71.8 °F 66.0 °F 29.93 in ESE 2.0 mph 2.0 mph 82% 0.00 in
07:13 71.9 °F 66.1 °F 29.93 in ESE 2.0 mph 2.0 mph 82% 0.00 in
07:18 72.1 °F 66.3 °F 29.93 in ESE 3.0 mph 3.0 mph 82% 0.00 in
07:23 72.3 °F 66.5 °F 29.93 in ESE 3.0 mph 3.0 mph 82% 0.00 in
07:28 72.6 °F 66.4 °F 29.93 in SE 2.0 mph 3.0 mph 81% 0.00 in
07:33 72.7 °F 66.5 °F 29.94 in ESE 3.0 mph 3.0 mph 81% 0.00 in
07:39 73.0 °F 66.8 °F 29.94 in ESE 2.0 mph 4.0 mph 81% 0.00 in
07:44 73.2 °F 67.0 °F 29.94 in ESE 2.0 mph 3.0 mph 81% 0.00 in
07:49 73.5 °F 67.3 °F 29.94 in SE 1.0 mph 3.0 mph 81% 0.00 in
07:54 73.7 °F 67.5 °F 29.94 in ESE 3.0 mph 4.0 mph 81% 0.00 in
07:59 73.9 °F 67.7 °F 29.94 in ESE 2.0 mph 4.0 mph 81% 0.00 in
08:04 74.2 °F 67.6 °F 29.95 in ESE 6.0 mph 7.0 mph 80% 0.00 in
08:09 74.5 °F 67.9 °F 29.95 in ESE 5.0 mph 5.0 mph 80% 0.00 in
08:14 74.6 °F 67.7 °F 29.95 in SE 3.0 mph 7.0 mph 79% 0.00 in
08:19 74.8 °F 67.9 °F 29.95 in SE 4.0 mph 6.0 mph 79% 0.00 in
08:24 75.1 °F 68.2 °F 29.95 in ESE 8.0 mph 8.0 mph 79% 0.00 in
08:29 75.3 °F 68.0 °F 29.95 in SE 6.0 mph 8.0 mph 78% 0.00 in
08:34 75.5 °F 67.8 °F 29.95 in East 9.0 mph 9.0 mph 77% 0.00 in
08:39 75.7 °F 68.4 °F 29.96 in SE 4.0 mph 8.0 mph 78% 0.00 in
08:44 75.8 °F 68.1 °F 29.95 in ESE 7.0 mph 9.0 mph 77% 0.00 in
08:49 76.1 °F 68.4 °F 29.96 in ESE 6.0 mph 10.0 mph 77% 0.00 in
08:54 76.3 °F 68.6 °F 29.96 in ESE 7.0 mph 7.0 mph 77% 0.00 in
08:59 76.5 °F 68.8 °F 29.96 in ESE 6.0 mph 11.0 mph 77% 0.00 in
09:04 76.8 °F 68.7 °F 29.96 in SE 9.0 mph 9.0 mph 76% 0.00 in
09:09 77.0 °F 68.9 °F 29.96 in ESE 6.0 mph 10.0 mph 76% 0.00 in
09:14 77.4 °F 69.2 °F 29.96 in SE 5.0 mph 7.0 mph 76% 0.00 in
09:19 77.6 °F 69.1 °F 29.96 in SE 5.0 mph 12.0 mph 75% 0.00 in
09:24 77.8 °F 69.6 °F 29.96 in ESE 7.0 mph 10.0 mph 76% 0.00 in
09:29 77.9 °F 68.9 °F 29.97 in SE 5.0 mph 13.0 mph 74% 0.00 in
09:34 78.2 °F 69.2 °F 29.96 in ESE 9.0 mph 9.0 mph 74% 0.00 in
09:39 78.4 °F 69.4 °F 29.96 in SE 7.0 mph 10.0 mph 74% 0.00 in
09:44 78.6 °F 69.6 °F 29.97 in ESE 6.0 mph 9.0 mph 74% 0.00 in
09:49 79.1 °F 69.7 °F 29.97 in ESE 7.0 mph 12.0 mph 73% 0.00 in
09:54 79.4 °F 70.4 °F 29.97 in SE 9.0 mph 11.0 mph 74% 0.00 in
09:59 79.5 °F 69.3 °F 29.97 in SE 10.0 mph 12.0 mph 71% 0.00 in
10:04 79.5 °F 69.7 °F 29.97 in SE 8.0 mph 11.0 mph 72% 0.00 in
10:10 79.5 °F 69.7 °F 29.96 in SSE 7.0 mph 12.0 mph 72% 0.00 in
10:15 79.5 °F 69.7 °F 29.96 in SE 8.0 mph 11.0 mph 72% 0.00 in
10:20 79.6 °F 69.4 °F 29.96 in SE 9.0 mph 13.0 mph 71% 0.00 in
10:25 79.9 °F 70.1 °F 29.96 in South 6.0 mph 10.0 mph 72% 0.00 in
10:30 80.2 °F 70.4 °F 29.96 in ESE 6.0 mph 8.0 mph 72% 0.00 in
10:35 80.7 °F 70.4 °F 29.96 in SSW 5.0 mph 8.0 mph 71% 0.00 in
10:40 81.0 °F 69.9 °F 29.96 in SSE 9.0 mph 12.0 mph 69% 0.00 in
10:45 81.0 °F 70.7 °F 29.95 in South 7.0 mph 9.0 mph 71% 0.00 in
10:46 81.0 °F 70.3 °F 29.95 in SE 4.0 mph 9.0 mph 70% 0.00 in
10:51 81.2 °F 70.9 °F 29.96 in SW 6.0 mph 8.0 mph 71% 0.00 in
10:56 81.5 °F 70.8 °F 29.96 in SSE 9.0 mph 11.0 mph 70% 0.00 in
11:01 81.7 °F 70.1 °F 29.96 in South 7.0 mph 11.0 mph 68% 0.00 in
11:06 81.8 °F 70.6 °F 29.95 in SE 5.0 mph 11.0 mph 69% 0.00 in
11:11 82.3 °F 70.7 °F 29.95 in South 3.0 mph 8.0 mph 68% 0.00 in
11:12 82.4 °F 71.2 °F 29.95 in SSW 6.0 mph 8.0 mph 69% 0.00 in
11:17 82.4 °F 69.9 °F 29.95 in ESE 7.0 mph 11.0 mph 66% 0.00 in
11:21 82.3 °F 70.3 °F 29.95 in SSE 7.0 mph 11.0 mph 67% 0.00 in
11:26 82.2 °F 69.7 °F 29.95 in SE 7.0 mph 10.0 mph 66% 0.00 in
11:31 81.9 °F 70.7 °F 29.95 in SE 5.0 mph 7.0 mph 69% 0.00 in
11:37 82.0 °F 70.4 °F 29.95 in SSE 6.0 mph 8.0 mph 68% 0.00 in
11:42 82.0 °F 70.4 °F 29.95 in SW 4.0 mph 7.0 mph 68% 0.00 in
11:47 82.4 °F 69.9 °F 29.95 in ESE 7.0 mph 9.0 mph 66% 0.00 in
11:52 82.5 °F 70.4 °F 29.95 in SW 1.0 mph 7.0 mph 67% 0.00 in
11:57 83.4 °F 71.3 °F 29.95 in SSW 4.0 mph 8.0 mph 67% 0.00 in
12:02 84.1 °F 71.1 °F 29.94 in South 8.0 mph 8.0 mph 65% 0.00 in
12:07 84.4 °F 72.7 °F 29.94 in SSE 3.0 mph 6.0 mph 68% 0.00 in
12:12 84.8 °F 72.2 °F 29.94 in SE 8.0 mph 10.0 mph 66% 0.00 in
12:17 83.9 °F 71.8 °F 29.94 in SSE 3.0 mph 8.0 mph 67% 0.00 in
12:22 84.1 °F 71.1 °F 29.94 in SE 1.0 mph 6.0 mph 65% 0.00 in
12:27 84.2 °F 72.1 °F 29.94 in SSE 6.0 mph 6.0 mph 67% 0.00 in
12:32 84.4 °F 71.4 °F 29.94 in SSW 4.0 mph 7.0 mph 65% 0.00 in
12:37 84.5 °F 71.4 °F 29.93 in SSW 4.0 mph 6.0 mph 65% 0.00 in
12:42 84.7 °F 71.6 °F 29.93 in ESE 8.0 mph 10.0 mph 65% 0.00 in
12:47 84.3 °F 70.8 °F 29.93 in ESE 4.0 mph 12.0 mph 64% 0.00 in
12:52 84.6 °F 72.0 °F 29.93 in SW 3.0 mph 6.0 mph 66% 0.00 in
12:57 85.2 °F 72.1 °F 29.92 in SSW 3.0 mph 8.0 mph 65% 0.00 in
13:02 85.3 °F 70.8 °F 29.92 in SSE 7.0 mph 7.0 mph 62% 0.00 in
13:08 85.8 °F 71.3 °F 29.92 in SE 4.0 mph 6.0 mph 62% 0.00 in
13:13 85.5 °F 70.5 °F 29.92 in South 4.0 mph 7.0 mph 61% 0.00 in
13:18 85.6 °F 71.1 °F 29.92 in WSW 1.0 mph 4.0 mph 62% 0.00 in
13:23 85.7 °F 70.7 °F 29.92 in SSW 3.0 mph 6.0 mph 61% 0.00 in
13:28 85.8 °F 70.3 °F 29.91 in WSW 5.0 mph 7.0 mph 60% 0.00 in
13:33 85.9 °F 71.8 °F 29.91 in SE 1.0 mph 5.0 mph 63% 0.00 in
13:38 85.9 °F 70.4 °F 29.91 in South 4.0 mph 7.0 mph 60% 0.00 in
13:43 85.9 °F 70.9 °F 29.91 in SSE 1.0 mph 9.0 mph 61% 0.00 in
13:48 86.2 °F 71.7 °F 29.91 in SW 5.0 mph 5.0 mph 62% 0.00 in
13:53 86.2 °F 69.2 °F 29.91 in WSW 2.0 mph 6.0 mph 57% 0.00 in
13:58 86.6 °F 70.6 °F 29.91 in SW 3.0 mph 3.0 mph 59% 0.00 in
14:03 87.4 °F 70.3 °F 29.90 in SW 2.0 mph 5.0 mph 57% 0.00 in
14:08 87.4 °F 69.8 °F 29.90 in South 2.0 mph 5.0 mph 56% 0.00 in
14:13 87.6 °F 70.0 °F 29.90 in SSE 3.0 mph 7.0 mph 56% 0.00 in
14:18 88.2 °F 70.0 °F 29.90 in ESE 3.0 mph 6.0 mph 55% 0.00 in
14:23 87.9 °F 69.7 °F 29.90 in WSW 4.0 mph 5.0 mph 55% 0.00 in
14:28 88.1 °F 71.5 °F 29.90 in SW 1.0 mph 3.0 mph 58% 0.00 in
14:33 87.8 °F 69.1 °F 29.89 in SE 2.0 mph 8.0 mph 54% 0.00 in
14:38 87.8 °F 70.7 °F 29.89 in SSE 6.0 mph 8.0 mph 57% 0.00 in
14:43 87.8 °F 69.1 °F 29.89 in SSE 5.0 mph 10.0 mph 54% 0.00 in
14:48 88.2 °F 69.5 °F 29.89 in SE 3.0 mph 4.0 mph 54% 0.00 in
14:53 88.2 °F 70.0 °F 29.89 in WSW 4.0 mph 6.0 mph 55% 0.00 in
14:58 88.3 °F 69.6 °F 29.89 in SSW 1.0 mph 5.0 mph 54% 0.00 in
15:03 88.3 °F 69.0 °F 29.88 in East 2.0 mph 5.0 mph 53% 0.00 in
15:08 88.0 °F 69.8 °F 29.88 in South 3.0 mph 4.0 mph 55% 0.00 in
15:13 88.6 °F 69.3 °F 29.88 in West 5.0 mph 7.0 mph 53% 0.00 in
15:18 88.2 °F 71.1 °F 29.88 in SW 3.0 mph 4.0 mph 57% 0.00 in
15:23 88.6 °F 69.8 °F 29.88 in SSE 1.0 mph 3.0 mph 54% 0.00 in
15:28 88.6 °F 68.7 °F 29.87 in SW 1.0 mph 5.0 mph 52% 0.00 in
15:33 88.6 °F 71.4 °F 29.87 in SW 3.0 mph 4.0 mph 57% 0.00 in
15:38 89.2 °F 69.8 °F 29.87 in SW 1.0 mph 3.0 mph 53% 0.00 in
15:43 89.7 °F 69.8 °F 29.87 in ESE 3.0 mph 5.0 mph 52% 0.00 in
15:48 89.4 °F 70.0 °F 29.87 in SSW 2.0 mph 3.0 mph 53% 0.00 in
15:53 89.4 °F 70.6 °F 29.86 in West 2.0 mph 4.0 mph 54% 0.00 in
15:58 89.2 °F 70.4 °F 29.86 in SW 2.0 mph 4.0 mph 54% 0.00 in
16:03 88.8 °F 70.0 °F 29.86 in Calm   2.0 mph 54% 0.00 in
16:08 88.4 °F 70.7 °F 29.86 in ESE 5.0 mph 6.0 mph 56% 0.00 in
16:13 87.6 °F 70.5 °F 29.85 in SE 3.0 mph 5.0 mph 57% 0.00 in
16:18 87.2 °F 70.1 °F 29.85 in ENE 2.0 mph 5.0 mph 57% 0.00 in
16:24 86.8 °F 70.3 °F 29.85 in ENE 1.0 mph 3.0 mph 58% 0.00 in
16:29 86.7 °F 70.7 °F 29.85 in East 2.0 mph 3.0 mph 59% 0.00 in
16:34 87.1 °F 71.0 °F 29.84 in ENE 2.0 mph 4.0 mph 59% 0.00 in
16:39 87.4 °F 71.3 °F 29.84 in East 3.0 mph 4.0 mph 59% 0.00 in
16:44 87.6 °F 70.5 °F 29.84 in ENE 2.0 mph 4.0 mph 57% 0.00 in
16:49 88.1 °F 72.0 °F 29.84 in NE 2.0 mph 4.0 mph 59% 0.00 in
16:54 88.3 °F 70.1 °F 29.83 in East 3.0 mph 4.0 mph 55% 0.00 in
16:59 88.5 °F 69.8 °F 29.83 in East 2.0 mph 3.0 mph 54% 0.00 in
17:04 88.4 °F 69.7 °F 29.83 in East 3.0 mph 4.0 mph 54% 0.00 in
17:09 88.2 °F 69.5 °F 29.83 in SSW 1.0 mph 2.0 mph 54% 0.00 in
17:14 87.9 °F 69.7 °F 29.83 in SE 3.0 mph 3.0 mph 55% 0.00 in
17:19 87.5 °F 69.9 °F 29.83 in SE 1.0 mph 2.0 mph 56% 0.00 in
17:24 87.8 °F 69.6 °F 29.83 in West 1.0 mph 2.0 mph 55% 0.00 in
17:29 88.2 °F 70.5 °F 29.83 in West 1.0 mph 1.0 mph 56% 0.00 in
17:34 87.9 °F 69.2 °F 29.83 in WSW 1.0 mph 2.0 mph 54% 0.00 in
17:39 87.8 °F 69.6 °F 29.83 in WNW 2.0 mph 3.0 mph 55% 0.00 in
17:44 87.3 °F 69.2 °F 29.83 in NW 2.0 mph 3.0 mph 55% 0.00 in
17:49 87.3 °F 73.6 °F 29.83 in NNE 1.0 mph 2.0 mph 64% 0.00 in
17:54 87.3 °F 72.2 °F 29.83 in NNE 2.0 mph 3.0 mph 61% 0.00 in
17:59 87.7 °F 70.1 °F 29.82 in NE 2.0 mph 3.0 mph 56% 0.00 in
18:04 87.6 °F 70.0 °F 29.82 in NE 1.0 mph 2.0 mph 56% 0.00 in
18:09 87.9 °F 71.8 °F 29.82 in NNW 2.0 mph 2.0 mph 59% 0.00 in
18:14 88.2 °F 72.1 °F 29.82 in NNE 2.0 mph 3.0 mph 59% 0.00 in
18:19 88.1 °F 71.0 °F 29.82 in ESE 1.0 mph 5.0 mph 57% 0.00 in
18:24 87.8 °F 70.2 °F 29.82 in ESE 3.0 mph 4.0 mph 56% 0.00 in
18:29 87.9 °F 70.8 °F 29.83 in East 3.0 mph 5.0 mph 57% 0.00 in
18:34 88.1 °F 72.0 °F 29.82 in East 3.0 mph 4.0 mph 59% 0.00 in
18:39 87.9 °F 70.3 °F 29.82 in East 3.0 mph 5.0 mph 56% 0.00 in
18:44 87.7 °F 70.6 °F 29.82 in ESE 3.0 mph 5.0 mph 57% 0.00 in
18:49 87.7 °F 70.1 °F 29.82 in NE 4.0 mph 5.0 mph 56% 0.00 in
18:54 87.7 °F 70.6 °F 29.82 in ENE 3.0 mph 3.0 mph 57% 0.00 in
18:59 87.7 °F 71.1 °F 29.82 in ENE 3.0 mph 3.0 mph 58% 0.00 in
19:04 87.7 °F 70.6 °F 29.82 in East 3.0 mph 4.0 mph 57% 0.00 in
19:09 87.5 °F 71.4 °F 29.82 in Calm   2.0 mph 59% 0.00 in
19:14 87.6 °F 71.0 °F 29.82 in ENE 2.0 mph 3.0 mph 58% 0.00 in
19:19 87.6 °F 70.5 °F 29.82 in ENE 1.0 mph 2.0 mph 57% 0.00 in
19:24 87.7 °F 70.6 °F 29.82 in East 1.0 mph 2.0 mph 57% 0.00 in
19:29 87.5 °F 70.9 °F 29.82 in ENE 2.0 mph 2.0 mph 58% 0.00 in
19:34 87.4 °F 71.8 °F 29.82 in Calm   1.0 mph 60% 0.00 in
19:39 87.4 °F 72.3 °F 29.82 in ENE 2.0 mph 2.0 mph 61% 0.00 in
19:44 87.0 °F 72.4 °F 29.82 in ENE 1.0 mph 1.0 mph 62% 0.00 in
19:50 86.6 °F 72.5 °F 29.82 in Calm   1.0 mph 63% 0.00 in
19:55 86.4 °F 71.4 °F 29.82 in East 1.0 mph 2.0 mph 61% 0.00 in
20:00 86.4 °F 71.8 °F 29.82 in Calm   2.0 mph 62% 0.00 in
20:05 86.3 °F 72.2 °F 29.82 in ESE 1.0 mph 1.0 mph 63% 0.00 in
20:10 86.1 °F 72.5 °F 29.82 in ESE 1.0 mph 1.0 mph 64% 0.00 in
20:15 85.8 °F 72.2 °F 29.82 in ESE 1.0 mph 2.0 mph 64% 0.00 in
20:20 85.4 °F 72.3 °F 29.82 in Calm   1.0 mph 65% 0.00 in
20:25 85.0 °F 72.4 °F 29.82 in Calm   1.0 mph 66% 0.00 in
20:30 84.6 °F 72.4 °F 29.82 in Calm   1.0 mph 67% 0.00 in
20:35 84.2 °F 72.5 °F 29.82 in ESE 1.0 mph 1.0 mph 68% 0.00 in
20:40 83.5 °F 72.3 °F 29.82 in ESE 1.0 mph 1.0 mph 69% 0.00 in
20:45 82.9 °F 72.5 °F 29.82 in ESE 2.0 mph 2.0 mph 71% 0.00 in
20:50 82.4 °F 72.1 °F 29.82 in Calm   1.0 mph 71% 0.00 in
20:55 82.1 °F 72.2 °F 29.82 in ESE 1.0 mph 2.0 mph 72% 0.00 in
21:00 81.7 °F 71.8 °F 29.82 in ESE 1.0 mph 1.0 mph 72% 0.00 in
21:05 81.2 °F 72.1 °F 29.82 in ESE 2.0 mph 2.0 mph 74% 0.00 in
21:10 80.7 °F 72.0 °F 29.82 in ESE 1.0 mph 2.0 mph 75% 0.00 in
21:15 80.4 °F 71.8 °F 29.82 in Calm   1.0 mph 75% 0.00 in
21:20 80.3 °F 71.7 °F 29.82 in Calm     75% 0.00 in
21:25 79.8 °F 71.6 °F 29.82 in ESE 1.0 mph 1.0 mph 76% 0.00 in
21:30 78.8 °F 71.4 °F 29.82 in Calm   1.0 mph 78% 0.00 in
21:35 78.4 °F 71.3 °F 29.82 in ESE 1.0 mph 1.0 mph 79% 0.00 in
21:40 78.6 °F 71.6 °F 29.82 in East 1.0 mph 2.0 mph 79% 0.00 in
21:45 78.9 °F 71.1 °F 29.82 in East 1.0 mph 1.0 mph 77% 0.00 in
21:50 79.1 °F 70.9 °F 29.82 in ESE 2.0 mph 2.0 mph 76% 0.00 in
21:55 79.1 °F 70.5 °F 29.82 in ESE 1.0 mph 2.0 mph 75% 0.00 in
22:00 79.2 °F 70.6 °F 29.83 in Calm   1.0 mph 75% 0.00 in
22:05 79.0 °F 70.4 °F 29.83 in Calm     75% 0.00 in
22:11 78.4 °F 70.2 °F 29.82 in Calm     76% 0.00 in
22:16 77.8 °F 70.0 °F 29.82 in Calm     77% 0.00 in
22:21 77.9 °F 69.7 °F 29.83 in Calm   1.0 mph 76% 0.00 in
22:26 78.1 °F 69.5 °F 29.83 in Calm     75% 0.00 in
22:31 77.8 °F 70.0 °F 29.83 in Calm   1.0 mph 77% 0.00 in
22:36 76.8 °F 69.8 °F 29.83 in Calm     79% 0.00 in
22:41 76.2 °F 69.6 °F 29.83 in Calm     80% 0.00 in
22:46 75.9 °F 69.3 °F 29.83 in Calm     80% 0.00 in
22:51 75.8 °F 69.2 °F 29.83 in Calm     80% 0.00 in
22:56 75.9 °F 69.3 °F 29.84 in Calm   1.0 mph 80% 0.00 in
23:01 76.0 °F 69.0 °F 29.84 in Calm     79% 0.00 in
23:06 75.7 °F 68.7 °F 29.84 in Calm     79% 0.00 in
23:11 75.3 °F 69.1 °F 29.84 in Calm     81% 0.00 in
23:16 75.2 °F 69.0 °F 29.83 in Calm     81% 0.00 in
23:21 75.3 °F 69.1 °F 29.84 in ESE 2.0 mph 2.0 mph 81% 0.00 in
23:26 76.1 °F 69.5 °F 29.84 in ESE 1.0 mph 1.0 mph 80% 0.00 in
23:31 76.3 °F 69.7 °F 29.84 in ESE 1.0 mph 3.0 mph 80% 0.00 in
23:36 76.5 °F 69.5 °F 29.84 in ESE 1.0 mph 1.0 mph 79% 0.00 in
23:41 76.7 °F 69.7 °F 29.84 in ESE 2.0 mph 2.0 mph 79% 0.00 in
23:46 76.9 °F 69.9 °F 29.84 in ESE 1.0 mph 2.0 mph 79% 0.00 in
23:51 76.8 °F 69.8 °F 29.84 in ESE 1.0 mph 2.0 mph 79% 0.00 in
23:56 76.6 °F 70.0 °F 29.84 in ESE 1.0 mph 2.0 mph 80% 0.00 in
Compliments of Weather Underground